SHT8K EGLL-EGPH
Flight info
| Callsign | SHT8K |
|---|---|
| Flight time | 0h 59m |
| Altitude | 32000 |
| Route | ULTIB T420 TNT UN57 POL UN601 RIBEL DCT INPIP |
| Aircraft | A320/M-SDE3FGHIRWY/LB1 |
Departure
| Time | 2026-04-21 17:13 |
|---|---|
| Airport | London Heathrow Airport (EGLL) |
Arrival
| Time | 2026-04-21 18:13 |
|---|---|
| Airport | Edinburgh Airport (EGPH) |
| Time | Latitude | Longitude | Altitude | Speed | Heading |
|---|---|---|---|---|---|
| 2026-04-21 16:39 | 51.47115 | -0.48005 | 86 ft | 0 kts | 273° |
| 2026-04-21 17:00 | 51.47115 | -0.47997 | 86 ft | 3 kts | 273° |
| 2026-04-21 17:00 | 51.47114 | -0.47954 | 86 ft | 4 kts | 273° |
| 2026-04-21 17:00 | 51.47113 | -0.47926 | 86 ft | 4 kts | 273° |
| 2026-04-21 17:00 | 51.47120 | -0.47877 | 86 ft | 4 kts | 210° |
| 2026-04-21 17:01 | 51.47138 | -0.47870 | 86 ft | 4 kts | 180° |
| 2026-04-21 17:01 | 51.47154 | -0.47870 | 88 ft | 0 kts | 180° |
| 2026-04-21 17:06 | 51.47151 | -0.47870 | 89 ft | 2 kts | 180° |
| 2026-04-21 17:06 | 51.47119 | -0.47870 | 86 ft | 7 kts | 180° |
| 2026-04-21 17:06 | 51.47049 | -0.47869 | 86 ft | 12 kts | 180° |
| 2026-04-21 17:07 | 51.46960 | -0.47869 | 86 ft | 14 kts | 180° |
| 2026-04-21 17:07 | 51.46859 | -0.47868 | 86 ft | 13 kts | 179° |
| 2026-04-21 17:07 | 51.46768 | -0.47867 | 86 ft | 10 kts | 179° |
| 2026-04-21 17:07 | 51.46691 | -0.47865 | 86 ft | 12 kts | 179° |
| 2026-04-21 17:08 | 51.46654 | -0.47951 | 87 ft | 11 kts | 269° |
| 2026-04-21 17:08 | 51.46653 | -0.48076 | 86 ft | 10 kts | 270° |
| 2026-04-21 17:08 | 51.46653 | -0.48173 | 86 ft | 8 kts | 269° |
| 2026-04-21 17:08 | 51.46628 | -0.48212 | 86 ft | 3 kts | 192° |
| 2026-04-21 17:09 | 51.46606 | -0.48214 | 87 ft | 0 kts | 181° |
| 2026-04-21 17:11 | 51.46605 | -0.48214 | 87 ft | 1 kts | 181° |
| 2026-04-21 17:11 | 51.46573 | -0.48215 | 87 ft | 8 kts | 180° |
| 2026-04-21 17:11 | 51.46509 | -0.48213 | 88 ft | 10 kts | 179° |
| 2026-04-21 17:11 | 51.46480 | -0.48154 | 88 ft | 5 kts | 90° |
| 2026-04-21 17:12 | 51.46480 | -0.48150 | 88 ft | 0 kts | 90° |
| 2026-04-21 17:12 | 51.46480 | -0.48149 | 88 ft | 0 kts | 90° |
| 2026-04-21 17:12 | 51.46480 | -0.47981 | 87 ft | 46 kts | 90° |
| 2026-04-21 17:12 | 51.46483 | -0.47111 | 89 ft | 107 kts | 90° |
| 2026-04-21 17:13 | 51.46487 | -0.45661 | 117 ft | 149 kts | 90° |
| 2026-04-21 17:13 | 51.46495 | -0.44028 | 767 ft | 146 kts | 88° |
| 2026-04-21 17:13 | 51.46519 | -0.42387 | 1427 ft | 150 kts | 85° |
| 2026-04-21 17:13 | 51.46870 | -0.40730 | 1721 ft | 172 kts | 55° |
| 2026-04-21 17:14 | 51.47721 | -0.39161 | 2007 ft | 199 kts | 52° |
| 2026-04-21 17:14 | 51.48655 | -0.37366 | 2485 ft | 221 kts | 52° |
| 2026-04-21 17:14 | 51.49676 | -0.35388 | 3209 ft | 233 kts | 52° |
| 2026-04-21 17:14 | 51.50722 | -0.33378 | 4182 ft | 236 kts | 52° |
| 2026-04-21 17:15 | 51.51781 | -0.31330 | 5113 ft | 241 kts | 56° |
| 2026-04-21 17:15 | 51.52533 | -0.28932 | 5954 ft | 243 kts | 72° |
| 2026-04-21 17:15 | 51.53092 | -0.26340 | 6855 ft | 248 kts | 72° |
| 2026-04-21 17:15 | 51.53641 | -0.23743 | 7677 ft | 252 kts | 73° |
| 2026-04-21 17:16 | 51.54247 | -0.21065 | 8482 ft | 258 kts | 65° |
| 2026-04-21 17:16 | 51.55487 | -0.18948 | 9244 ft | 271 kts | 32° |
| 2026-04-21 17:16 | 51.57357 | -0.18277 | 10126 ft | 287 kts | 359° |
| 2026-04-21 17:16 | 51.59287 | -0.19332 | 10679 ft | 310 kts | 329° |
| 2026-04-21 17:17 | 51.60891 | -0.21864 | 10902 ft | 337 kts | 312° |
| 2026-04-21 17:17 | 51.62605 | -0.24523 | 11374 ft | 345 kts | 326° |
| 2026-04-21 17:17 | 51.64647 | -0.26572 | 12065 ft | 348 kts | 332° |
| 2026-04-21 17:17 | 51.66739 | -0.28572 | 12758 ft | 352 kts | 332° |
| 2026-04-21 17:18 | 51.68822 | -0.30578 | 13464 ft | 356 kts | 332° |
| 2026-04-21 17:18 | 51.70956 | -0.32642 | 14163 ft | 359 kts | 332° |
| 2026-04-21 17:18 | 51.73108 | -0.34725 | 14822 ft | 362 kts | 332° |
| 2026-04-21 17:18 | 51.75274 | -0.36820 | 15482 ft | 364 kts | 330° |
| 2026-04-21 17:19 | 51.77450 | -0.38921 | 16157 ft | 365 kts | 331° |
| 2026-04-21 17:19 | 51.79636 | -0.41034 | 16681 ft | 367 kts | 330° |
| 2026-04-21 17:19 | 51.81834 | -0.43166 | 17333 ft | 369 kts | 332° |
| 2026-04-21 17:19 | 51.84043 | -0.45311 | 17993 ft | 371 kts | 330° |
| 2026-04-21 17:20 | 51.86261 | -0.47468 | 18645 ft | 373 kts | 330° |
| 2026-04-21 17:20 | 51.88491 | -0.49642 | 19262 ft | 374 kts | 330° |
| 2026-04-21 17:20 | 51.90683 | -0.51782 | 19973 ft | 373 kts | 330° |
| 2026-04-21 17:20 | 51.92898 | -0.53942 | 20770 ft | 370 kts | 329° |
| 2026-04-21 17:21 | 51.95102 | -0.56093 | 21461 ft | 370 kts | 329° |
| 2026-04-21 17:21 | 51.97305 | -0.58243 | 22099 ft | 370 kts | 329° |
| 2026-04-21 17:21 | 51.99510 | -0.60390 | 22721 ft | 371 kts | 328° |
| 2026-04-21 17:21 | 52.01726 | -0.62552 | 23382 ft | 370 kts | 328° |
| 2026-04-21 17:22 | 52.03932 | -0.64712 | 24001 ft | 370 kts | 328° |
| 2026-04-21 17:22 | 52.06140 | -0.66877 | 24440 ft | 373 kts | 328° |
| 2026-04-21 17:22 | 52.08348 | -0.69043 | 24787 ft | 377 kts | 328° |
| 2026-04-21 17:22 | 52.10597 | -0.71256 | 25225 ft | 379 kts | 328° |
| 2026-04-21 17:23 | 52.12850 | -0.73483 | 25695 ft | 379 kts | 328° |
| 2026-04-21 17:23 | 52.15108 | -0.75715 | 26168 ft | 379 kts | 327° |
| 2026-04-21 17:23 | 52.17364 | -0.77942 | 26624 ft | 380 kts | 327° |
| 2026-04-21 17:23 | 52.19624 | -0.80173 | 27077 ft | 380 kts | 327° |
| 2026-04-21 17:24 | 52.21886 | -0.82408 | 27525 ft | 380 kts | 327° |
| 2026-04-21 17:24 | 52.24147 | -0.84649 | 27977 ft | 380 kts | 327° |
| 2026-04-21 17:24 | 52.26408 | -0.86887 | 28420 ft | 381 kts | 327° |
| 2026-04-21 17:24 | 52.28642 | -0.89104 | 28873 ft | 381 kts | 327° |
| 2026-04-21 17:25 | 52.30906 | -0.91357 | 29277 ft | 382 kts | 327° |
| 2026-04-21 17:25 | 52.33182 | -0.93626 | 29713 ft | 382 kts | 326° |
| 2026-04-21 17:25 | 52.35460 | -0.95898 | 30166 ft | 382 kts | 326° |
| 2026-04-21 17:25 | 52.37730 | -0.98161 | 30570 ft | 382 kts | 326° |
| 2026-04-21 17:26 | 52.39993 | -1.00418 | 30978 ft | 381 kts | 326° |
| 2026-04-21 17:26 | 52.42266 | -1.02689 | 31290 ft | 383 kts | 326° |
| 2026-04-21 17:26 | 52.44542 | -1.04972 | 31588 ft | 384 kts | 326° |
| 2026-04-21 17:26 | 52.46826 | -1.07264 | 31950 ft | 385 kts | 326° |
| 2026-04-21 17:27 | 52.49103 | -1.09549 | 32227 ft | 386 kts | 326° |
| 2026-04-21 17:27 | 52.51358 | -1.11818 | 32275 ft | 382 kts | 326° |
| 2026-04-21 17:27 | 52.55865 | -1.16360 | 32253 ft | 379 kts | 326° |
| 2026-04-21 17:28 | 52.60361 | -1.20896 | 32232 ft | 379 kts | 326° |
| 2026-04-21 17:28 | 52.64854 | -1.25438 | 32220 ft | 379 kts | 326° |
| 2026-04-21 17:29 | 52.69342 | -1.29995 | 32220 ft | 379 kts | 326° |
| 2026-04-21 17:29 | 52.73798 | -1.34529 | 32383 ft | 379 kts | 326° |
| 2026-04-21 17:30 | 52.78291 | -1.39105 | 32393 ft | 380 kts | 326° |
| 2026-04-21 17:30 | 52.82790 | -1.43698 | 32380 ft | 381 kts | 326° |
| 2026-04-21 17:31 | 52.87300 | -1.48319 | 32378 ft | 381 kts | 326° |
| 2026-04-21 17:31 | 52.91808 | -1.52957 | 32354 ft | 382 kts | 326° |
| 2026-04-21 17:32 | 52.96290 | -1.57570 | 32365 ft | 382 kts | 326° |
| 2026-04-21 17:32 | 53.00801 | -1.62224 | 32384 ft | 382 kts | 326° |
| 2026-04-21 17:33 | 53.05345 | -1.66806 | 32374 ft | 384 kts | 331° |
| 2026-04-21 17:33 | 53.10345 | -1.70055 | 32371 ft | 387 kts | 336° |
| 2026-04-21 17:34 | 53.15391 | -1.73173 | 32375 ft | 387 kts | 336° |
| 2026-04-21 17:34 | 53.20400 | -1.76293 | 32376 ft | 387 kts | 336° |
| 2026-04-21 17:35 | 53.25450 | -1.79436 | 32405 ft | 388 kts | 336° |
| 2026-04-21 17:35 | 53.30519 | -1.82596 | 32386 ft | 390 kts | 336° |
| 2026-04-21 17:36 | 53.35604 | -1.85778 | 32377 ft | 391 kts | 336° |
| 2026-04-21 17:36 | 53.40698 | -1.88979 | 32379 ft | 391 kts | 336° |
| 2026-04-21 17:37 | 53.45758 | -1.92161 | 32393 ft | 391 kts | 336° |
| 2026-04-21 17:37 | 53.50855 | -1.95370 | 32389 ft | 391 kts | 336° |
| 2026-04-21 17:38 | 53.55954 | -1.98597 | 32398 ft | 391 kts | 336° |
| 2026-04-21 17:38 | 53.61050 | -2.01830 | 32397 ft | 392 kts | 336° |
| 2026-04-21 17:39 | 53.66149 | -2.05075 | 32407 ft | 392 kts | 336° |
| 2026-04-21 17:39 | 53.71210 | -2.08299 | 32378 ft | 392 kts | 335° |
| 2026-04-21 17:40 | 53.76300 | -2.11581 | 32406 ft | 391 kts | 335° |
| 2026-04-21 17:40 | 53.81356 | -2.15012 | 32398 ft | 392 kts | 334° |
| 2026-04-21 17:41 | 53.86404 | -2.18492 | 32397 ft | 392 kts | 334° |
| 2026-04-21 17:41 | 53.91452 | -2.21976 | 32406 ft | 392 kts | 334° |
| 2026-04-21 17:42 | 53.96470 | -2.25429 | 32418 ft | 392 kts | 334° |
| 2026-04-21 17:42 | 54.01530 | -2.28901 | 32408 ft | 393 kts | 335° |
| 2026-04-21 17:43 | 54.06606 | -2.32397 | 32398 ft | 394 kts | 335° |
| 2026-04-21 17:43 | 54.11697 | -2.35918 | 32395 ft | 395 kts | 335° |
| 2026-04-21 17:44 | 54.16761 | -2.39431 | 32404 ft | 396 kts | 335° |
| 2026-04-21 17:44 | 54.21866 | -2.42985 | 32403 ft | 396 kts | 335° |
| 2026-04-21 17:45 | 54.26985 | -2.46556 | 32408 ft | 399 kts | 335° |
| 2026-04-21 17:45 | 54.32143 | -2.50158 | 32408 ft | 401 kts | 335° |
| 2026-04-21 17:46 | 54.37290 | -2.53764 | 32412 ft | 403 kts | 335° |
| 2026-04-21 17:46 | 54.42488 | -2.57427 | 32415 ft | 404 kts | 335° |
| 2026-04-21 17:47 | 54.47698 | -2.61094 | 32434 ft | 405 kts | 335° |
| 2026-04-21 17:47 | 54.52933 | -2.64795 | 32275 ft | 410 kts | 335° |
| 2026-04-21 17:48 | 54.54676 | -2.66028 | 32102 ft | 408 kts | 335° |
| 2026-04-21 17:48 | 54.58186 | -2.68516 | 31753 ft | 407 kts | 335° |
| 2026-04-21 17:48 | 54.60755 | -2.70337 | 31482 ft | 401 kts | 334° |
| 2026-04-21 17:48 | 54.63317 | -2.72156 | 31026 ft | 396 kts | 334° |
| 2026-04-21 17:49 | 54.65852 | -2.73962 | 30544 ft | 392 kts | 334° |
| 2026-04-21 17:49 | 54.68359 | -2.75754 | 30012 ft | 387 kts | 334° |
| 2026-04-21 17:49 | 54.70833 | -2.77524 | 29541 ft | 382 kts | 334° |
| 2026-04-21 17:49 | 54.73277 | -2.79276 | 29096 ft | 378 kts | 335° |
| 2026-04-21 17:50 | 54.75699 | -2.81014 | 28630 ft | 376 kts | 335° |
| 2026-04-21 17:50 | 54.78104 | -2.82741 | 28175 ft | 374 kts | 336° |
| 2026-04-21 17:50 | 54.80476 | -2.84443 | 27738 ft | 373 kts | 336° |
| 2026-04-21 17:50 | 54.82896 | -2.86182 | 27296 ft | 386 kts | 336° |
| 2026-04-21 17:51 | 54.85406 | -2.87991 | 26847 ft | 394 kts | 336° |
| 2026-04-21 17:51 | 54.87950 | -2.89826 | 26390 ft | 397 kts | 336° |
| 2026-04-21 17:51 | 54.90507 | -2.91671 | 25810 ft | 399 kts | 337° |
| 2026-04-21 17:51 | 54.93068 | -2.93519 | 25270 ft | 399 kts | 337° |
| 2026-04-21 17:52 | 54.95634 | -2.95373 | 24709 ft | 400 kts | 338° |
| 2026-04-21 17:52 | 54.98204 | -2.97234 | 24134 ft | 401 kts | 338° |
| 2026-04-21 17:52 | 55.00790 | -2.99112 | 23523 ft | 403 kts | 338° |
| 2026-04-21 17:52 | 55.03339 | -3.00968 | 22967 ft | 402 kts | 339° |
| 2026-04-21 17:53 | 55.05922 | -3.02846 | 22407 ft | 402 kts | 339° |
| 2026-04-21 17:53 | 55.08494 | -3.04719 | 22071 ft | 396 kts | 339° |
| 2026-04-21 17:53 | 55.10997 | -3.06549 | 21448 ft | 385 kts | 339° |
| 2026-04-21 17:53 | 55.13456 | -3.08347 | 20765 ft | 382 kts | 339° |
| 2026-04-21 17:54 | 55.15917 | -3.10143 | 20215 ft | 385 kts | 340° |
| 2026-04-21 17:54 | 55.18407 | -3.11963 | 19651 ft | 386 kts | 340° |
| 2026-04-21 17:54 | 55.20851 | -3.13757 | 19380 ft | 377 kts | 339° |
| 2026-04-21 17:54 | 55.23259 | -3.15530 | 18436 ft | 376 kts | 340° |
| 2026-04-21 17:55 | 55.25665 | -3.17306 | 17397 ft | 373 kts | 340° |
| 2026-04-21 17:55 | 55.27987 | -3.19026 | 16809 ft | 360 kts | 340° |
| 2026-04-21 17:55 | 55.30261 | -3.20815 | 16552 ft | 362 kts | 334° |
| 2026-04-21 17:55 | 55.32447 | -3.23028 | 16160 ft | 361 kts | 333° |
| 2026-04-21 17:56 | 55.34604 | -3.25241 | 15695 ft | 358 kts | 332° |
| 2026-04-21 17:56 | 55.36744 | -3.27441 | 15240 ft | 355 kts | 333° |
| 2026-04-21 17:56 | 55.38875 | -3.29632 | 14708 ft | 355 kts | 332° |
| 2026-04-21 17:56 | 55.41024 | -3.31838 | 14040 ft | 359 kts | 332° |
| 2026-04-21 17:57 | 55.43116 | -3.33997 | 13852 ft | 336 kts | 332° |
| 2026-04-21 17:57 | 55.45073 | -3.36026 | 13685 ft | 321 kts | 333° |
| 2026-04-21 17:57 | 55.46972 | -3.37994 | 13414 ft | 314 kts | 333° |
| 2026-04-21 17:57 | 55.48822 | -3.39912 | 13062 ft | 311 kts | 333° |
| 2026-04-21 17:58 | 55.50683 | -3.41837 | 12726 ft | 309 kts | 333° |
| 2026-04-21 17:58 | 55.52533 | -3.43748 | 12369 ft | 307 kts | 333° |
| 2026-04-21 17:58 | 55.54371 | -3.45647 | 12049 ft | 305 kts | 333° |
| 2026-04-21 17:58 | 55.56194 | -3.47537 | 11691 ft | 304 kts | 333° |
| 2026-04-21 17:59 | 55.58010 | -3.49422 | 11398 ft | 301 kts | 333° |
| 2026-04-21 17:59 | 55.59797 | -3.51289 | 11209 ft | 294 kts | 333° |
| 2026-04-21 17:59 | 55.61535 | -3.53106 | 11086 ft | 285 kts | 333° |
| 2026-04-21 17:59 | 55.63218 | -3.54866 | 10968 ft | 277 kts | 333° |
| 2026-04-21 18:00 | 55.64786 | -3.56773 | 10845 ft | 272 kts | 317° |
| 2026-04-21 18:00 | 55.65990 | -3.59247 | 10718 ft | 264 kts | 315° |
| 2026-04-21 18:00 | 55.67280 | -3.61502 | 10505 ft | 258 kts | 321° |
| 2026-04-21 18:00 | 55.68627 | -3.63576 | 10267 ft | 255 kts | 323° |
| 2026-04-21 18:01 | 55.70000 | -3.65552 | 9963 ft | 253 kts | 326° |
| 2026-04-21 18:01 | 55.71396 | -3.67461 | 9665 ft | 253 kts | 326° |
| 2026-04-21 18:01 | 55.72783 | -3.69357 | 9399 ft | 251 kts | 327° |
| 2026-04-21 18:01 | 55.74314 | -3.70657 | 9115 ft | 240 kts | 356° |
| 2026-04-21 18:02 | 55.75913 | -3.70388 | 8822 ft | 227 kts | 28° |
| 2026-04-21 18:02 | 55.77083 | -3.68734 | 8536 ft | 216 kts | 61° |
| 2026-04-21 18:02 | 55.77498 | -3.66263 | 8244 ft | 210 kts | 93° |
| 2026-04-21 18:02 | 55.77016 | -3.63846 | 7923 ft | 213 kts | 126° |
| 2026-04-21 18:03 | 55.75795 | -3.62337 | 7598 ft | 222 kts | 160° |
| 2026-04-21 18:03 | 55.74241 | -3.62310 | 7279 ft | 232 kts | 193° |
| 2026-04-21 18:03 | 55.72868 | -3.63844 | 6981 ft | 241 kts | 226° |
| 2026-04-21 18:03 | 55.72129 | -3.66500 | 6658 ft | 245 kts | 260° |
| 2026-04-21 18:04 | 55.72268 | -3.69483 | 6311 ft | 245 kts | 294° |
| 2026-04-21 18:04 | 55.73192 | -3.71957 | 5968 ft | 241 kts | 316° |
| 2026-04-21 18:04 | 55.74349 | -3.74097 | 5788 ft | 241 kts | 319° |
| 2026-04-21 18:04 | 55.75516 | -3.76168 | 5601 ft | 240 kts | 319° |
| 2026-04-21 18:05 | 55.76700 | -3.78247 | 5429 ft | 239 kts | 320° |
| 2026-04-21 18:05 | 55.78049 | -3.79829 | 5247 ft | 227 kts | 351° |
| 2026-04-21 18:05 | 55.79516 | -3.79802 | 5138 ft | 202 kts | 26° |
| 2026-04-21 18:05 | 55.80661 | -3.78633 | 5071 ft | 181 kts | 47° |
| 2026-04-21 18:06 | 55.81417 | -3.76948 | 4964 ft | 172 kts | 63° |
| 2026-04-21 18:06 | 55.82039 | -3.75141 | 4872 ft | 171 kts | 62° |
| 2026-04-21 18:06 | 55.82659 | -3.73343 | 4708 ft | 170 kts | 62° |
| 2026-04-21 18:06 | 55.83277 | -3.71550 | 4490 ft | 170 kts | 62° |
| 2026-04-21 18:07 | 55.83889 | -3.69773 | 4271 ft | 167 kts | 62° |
| 2026-04-21 18:07 | 55.84480 | -3.68055 | 4044 ft | 163 kts | 62° |
| 2026-04-21 18:07 | 55.85064 | -3.66355 | 3833 ft | 159 kts | 63° |
| 2026-04-21 18:07 | 55.85634 | -3.64693 | 3614 ft | 155 kts | 62° |
| 2026-04-21 18:08 | 55.86190 | -3.63074 | 3393 ft | 151 kts | 62° |
| 2026-04-21 18:08 | 55.86711 | -3.61556 | 3209 ft | 138 kts | 63° |
| 2026-04-21 18:08 | 55.87198 | -3.60134 | 3013 ft | 132 kts | 63° |
| 2026-04-21 18:08 | 55.87672 | -3.58749 | 2836 ft | 130 kts | 63° |
| 2026-04-21 18:09 | 55.88142 | -3.57377 | 2646 ft | 129 kts | 63° |
| 2026-04-21 18:09 | 55.88600 | -3.56036 | 2476 ft | 129 kts | 62° |
| 2026-04-21 18:09 | 55.88914 | -3.55118 | 2353 ft | 128 kts | 62° |
| 2026-04-21 18:09 | 55.89526 | -3.53326 | 2116 ft | 128 kts | 62° |
| 2026-04-21 18:10 | 55.89987 | -3.51974 | 1939 ft | 128 kts | 62° |
| 2026-04-21 18:10 | 55.90449 | -3.50622 | 1768 ft | 127 kts | 62° |
| 2026-04-21 18:10 | 55.90911 | -3.49269 | 1566 ft | 128 kts | 62° |
| 2026-04-21 18:10 | 55.91370 | -3.47921 | 1370 ft | 127 kts | 62° |
| 2026-04-21 18:11 | 55.91819 | -3.46599 | 1184 ft | 126 kts | 61° |
| 2026-04-21 18:11 | 55.92274 | -3.45261 | 999 ft | 125 kts | 61° |
| 2026-04-21 18:11 | 55.92729 | -3.43922 | 835 ft | 126 kts | 61° |
| 2026-04-21 18:11 | 55.93188 | -3.42578 | 646 ft | 126 kts | 59° |
| 2026-04-21 18:12 | 55.93646 | -3.41228 | 453 ft | 127 kts | 59° |
| 2026-04-21 18:12 | 55.94101 | -3.39889 | 306 ft | 125 kts | 59° |
| 2026-04-21 18:12 | 55.94556 | -3.38564 | 152 ft | 125 kts | 59° |
| 2026-04-21 18:12 | 55.94964 | -3.37355 | 111 ft | 91 kts | 59° |
| 2026-04-21 18:13 | 55.95167 | -3.36751 | 113 ft | 35 kts | 57° |
| 2026-04-21 18:13 | 55.95248 | -3.36511 | 110 ft | 15 kts | 59° |
| 2026-04-21 18:13 | 55.95236 | -3.36396 | 112 ft | 11 kts | 144° |
| 2026-04-21 18:13 | 55.95178 | -3.36333 | 116 ft | 10 kts | 149° |
| 2026-04-21 18:14 | 55.95079 | -3.36413 | 115 ft | 6 kts | 195° |
| 2026-04-21 18:14 | 55.95033 | -3.36381 | 114 ft | 7 kts | 179° |
| 2026-04-21 18:14 | 55.94995 | -3.36453 | 116 ft | 10 kts | 239° |
| 2026-04-21 18:15 | 55.94958 | -3.36561 | 113 ft | 11 kts | 238° |
| 2026-04-21 18:15 | 55.94923 | -3.36664 | 115 ft | 4 kts | 236° |
| 2026-04-21 18:15 | 55.94891 | -3.36650 | 115 ft | 7 kts | 147° |
| 2026-04-21 18:15 | 55.94862 | -3.36614 | 114 ft | 2 kts | 145° |
| 2026-04-21 18:16 | 55.94860 | -3.36611 | 116 ft | 0 kts | 145° |